createdAt,value
2018-09-01T00:01:16.397Z,72.08
2018-09-01T00:04:40.752Z,71.50
2018-09-01T00:08:05.176Z,72.06
2018-09-01T00:11:29.697Z,72.89
2018-09-01T00:14:54.075Z,72.95
2018-09-01T00:18:18.492Z,72.52
2018-09-01T00:21:42.932Z,71.89
2018-09-01T00:25:07.596Z,72.12
2018-09-01T00:28:31.973Z,72.29
2018-09-01T00:31:56.398Z,72.71
2018-09-01T00:35:20.781Z,72.68
2018-09-01T00:39:16.913Z,73.01
2018-09-01T00:42:41.318Z,72.83
2018-09-01T00:46:05.991Z,73.02
2018-09-01T00:49:30.461Z,73.58
2018-09-01T00:52:54.854Z,73.58
2018-09-01T00:56:19.308Z,73.12
2018-09-01T00:59:43.734Z,73.66
2018-09-01T01:03:08.148Z,72.97
2018-09-01T01:06:32.556Z,73.05
2018-09-01T01:09:56.953Z,73.66
2018-09-01T01:13:21.414Z,73.62
2018-09-01T01:16:45.952Z,73.49
2018-09-01T01:20:10.425Z,74.08
2018-09-01T01:23:34.800Z,74.16
2018-09-01T01:26:59.207Z,73.89
2018-09-01T01:30:23.609Z,74.25
2018-09-01T01:33:48.030Z,74.13
2018-09-01T01:37:12.430Z,73.82
2018-09-01T01:40:36.830Z,74.56
2018-09-01T01:44:01.229Z,74.67
2018-09-01T01:47:25.663Z,74.67
2018-09-01T01:50:50.056Z,75.17
2018-09-01T01:54:14.459Z,74.88
2018-09-01T01:57:44.140Z,75.04
2018-09-01T02:01:08.555Z,74.79
2018-09-01T02:04:32.969Z,74.69
2018-09-01T02:07:57.349Z,74.68
2018-09-01T02:11:21.764Z,74.85
2018-09-01T02:14:46.194Z,75.71
2018-09-01T02:18:10.712Z,76.07
2018-09-01T02:21:35.099Z,74.98
2018-09-01T02:24:59.491Z,75.09
2018-09-01T02:28:23.868Z,75.14
2018-09-01T02:31:48.280Z,75.02
2018-09-01T02:35:12.711Z,75.35
2018-09-01T02:38:37.108Z,75.21
2018-09-01T02:42:01.511Z,74.39
2018-09-01T02:45:25.898Z,74.82
2018-09-01T02:48:50.289Z,75.34
2018-09-01T02:52:14.829Z,75.31
2018-09-01T02:55:39.241Z,74.87
2018-09-01T02:59:04.055Z,75.40
2018-09-01T03:02:33.671Z,76.10
2018-09-01T03:05:58.053Z,75.62
2018-09-01T03:09:23.000Z,75.99
2018-09-01T03:12:47.399Z,75.87
2018-09-01T03:16:11.843Z,75.09
2018-09-01T03:19:36.268Z,74.98
2018-09-01T03:23:00.668Z,75.11
2018-09-01T03:26:25.053Z,75.50
2018-09-01T03:29:49.438Z,76.04
2018-09-01T03:33:13.844Z,76.05
2018-09-01T03:36:38.240Z,75.79
2018-09-01T03:40:02.726Z,75.49
2018-09-01T03:43:27.280Z,75.50
2018-09-01T03:46:51.659Z,75.73
2018-09-01T03:50:16.045Z,76.04
2018-09-01T03:53:40.466Z,76.36
2018-09-01T03:57:04.860Z,76.42
2018-09-01T04:00:29.290Z,76.39
2018-09-01T04:03:53.719Z,76.74
2018-09-01T04:07:18.095Z,76.81
2018-09-01T04:10:42.536Z,76.36
2018-09-01T04:14:06.955Z,76.15
2018-09-01T04:17:31.437Z,76.21
2018-09-01T04:20:55.893Z,76.10
2018-09-01T04:24:20.338Z,75.85
2018-09-01T04:27:44.692Z,76.59
2018-09-01T04:31:09.060Z,76.19
2018-09-01T04:34:33.491Z,76.55
2018-09-01T04:37:57.940Z,76.63
2018-09-01T04:41:22.365Z,76.06
2018-09-01T04:44:46.710Z,76.78
2018-09-01T04:48:11.725Z,76.90
2018-09-01T04:51:36.231Z,76.34
2018-09-01T04:55:00.658Z,76.67
2018-09-01T04:58:25.050Z,76.11
2018-09-01T05:01:49.484Z,76.61
2018-09-01T05:05:13.871Z,76.52
2018-09-01T05:08:38.263Z,76.83
2018-09-01T05:12:02.634Z,76.58
2018-09-01T05:15:27.041Z,76.93
2018-09-01T05:18:51.692Z,77.21
2018-09-01T05:22:16.250Z,76.84
2018-09-01T05:25:40.842Z,76.72
2018-09-01T05:29:05.571Z,77.07
2018-09-01T05:32:30.048Z,77.51
2018-09-01T05:35:54.464Z,77.29
2018-09-01T05:39:18.867Z,76.98
2018-09-01T05:42:43.588Z,77.17
2018-09-01T05:46:08.261Z,76.85
2018-09-01T05:49:32.634Z,77.17
2018-09-01T05:52:57.144Z,77.40
2018-09-01T05:56:21.615Z,77.36
2018-09-01T05:59:46.061Z,77.09
2018-09-01T06:03:10.517Z,77.21
2018-09-01T06:06:34.992Z,76.38
2018-09-01T06:09:59.554Z,76.08
2018-09-01T06:13:24.158Z,76.15
2018-09-01T06:16:48.900Z,75.83
2018-09-01T06:20:14.613Z,75.44
2018-09-01T06:23:39.156Z,75.41
2018-09-01T06:27:08.605Z,75.37
2018-09-01T06:30:35.553Z,75.09
2018-09-01T06:34:06.533Z,75.12
2018-09-01T06:37:31.082Z,75.29
2018-09-01T06:40:55.529Z,75.67
2018-09-01T06:44:20.116Z,74.50
2018-09-01T06:48:47.933Z,75.28
2018-09-01T07:00:03.565Z,73.36
2018-09-01T07:03:28.084Z,72.64
2018-09-01T07:06:52.671Z,72.32
2018-09-01T07:10:17.175Z,71.11
2018-09-01T07:13:41.771Z,70.41
2018-09-01T07:17:06.618Z,69.26
2018-09-01T07:20:30.964Z,68.30
2018-09-01T07:23:55.391Z,67.75
2018-09-01T07:27:19.811Z,66.82
2018-09-01T07:30:44.338Z,65.45
2018-09-01T07:34:08.686Z,65.44
2018-09-01T07:37:33.137Z,64.36
2018-09-01T07:40:57.527Z,63.85
2018-09-01T07:44:21.951Z,63.46
2018-09-01T07:47:46.336Z,62.26
2018-09-01T07:51:10.880Z,61.53
2018-09-01T07:54:35.669Z,61.65
2018-09-01T07:58:00.034Z,60.47
2018-09-01T08:01:24.432Z,60.53
2018-09-01T08:04:49.231Z,59.66
2018-09-01T08:08:13.635Z,58.27
2018-09-01T08:11:38.389Z,58.25
2018-09-01T08:15:02.947Z,57.97
2018-09-01T08:18:27.527Z,56.95
2018-09-01T08:21:52.001Z,57.24
2018-09-01T08:25:16.615Z,56.31
2018-09-01T08:28:41.090Z,55.73
2018-09-01T08:32:05.497Z,55.17
2018-09-01T08:35:29.949Z,54.21
2018-09-01T08:38:54.380Z,53.89
2018-09-01T08:42:18.878Z,53.73
2018-09-01T08:45:43.281Z,53.41
2018-09-01T08:49:07.766Z,51.98
2018-09-01T08:52:32.172Z,51.97
2018-09-01T08:55:56.581Z,51.74
2018-09-01T08:59:21.102Z,50.14
2018-09-01T09:02:45.646Z,49.92
2018-09-01T09:06:10.363Z,50.37
2018-09-01T09:09:34.818Z,46.98
2018-09-01T09:12:59.240Z,46.14
2018-09-01T09:16:23.634Z,46.15
2018-09-01T09:19:48.086Z,45.65
2018-09-01T09:23:12.581Z,46.41
2018-09-01T09:26:37.018Z,46.49
2018-09-01T09:30:01.521Z,45.88
2018-09-01T09:33:26.017Z,44.38
2018-09-01T09:36:50.503Z,44.94
2018-09-01T09:40:14.966Z,44.06
2018-09-01T09:43:39.559Z,41.45
2018-09-01T09:47:04.005Z,39.73
2018-09-01T09:50:28.444Z,41.66
2018-09-01T09:53:52.840Z,40.50
2018-09-01T09:57:17.288Z,37.71
2018-09-01T10:00:46.884Z,37.37
2018-09-01T10:04:12.070Z,35.34
2018-09-01T10:07:36.716Z,34.92
2018-09-01T10:11:01.394Z,31.81
2018-09-01T10:14:25.977Z,31.32
2018-09-01T10:17:50.456Z,31.43
2018-09-01T10:21:14.879Z,28.61
2018-09-01T10:24:39.329Z,24.98
2018-09-01T10:28:03.883Z,22.80
2018-09-01T10:31:28.290Z,20.47
2018-09-01T10:34:52.716Z,22.18
2018-09-01T10:38:17.159Z,27.09
2018-09-01T10:41:41.591Z,25.28
2018-09-01T10:45:06.188Z,25.89
2018-09-01T10:48:30.601Z,24.42
2018-09-01T10:51:55.024Z,23.74
2018-09-01T10:55:19.497Z,25.69
2018-09-01T10:58:43.973Z,26.25
2018-09-01T11:02:08.422Z,29.78
2018-09-01T11:05:32.916Z,29.78
2018-09-01T11:08:57.251Z,30.29
2018-09-01T11:12:22.069Z,30.01
2018-09-01T11:15:46.882Z,32.22
2018-09-01T11:19:11.935Z,31.98
2018-09-01T11:22:36.355Z,31.22
2018-09-01T11:26:00.731Z,31.13
2018-09-01T11:29:25.151Z,32.46
2018-09-01T11:32:49.595Z,32.28
2018-09-01T11:36:13.997Z,33.54
2018-09-01T11:39:38.585Z,32.50
2018-09-01T11:43:03.215Z,31.38
2018-09-01T11:46:27.448Z,31.28
2018-09-01T11:49:51.955Z,31.16
2018-09-01T11:53:16.490Z,28.83
2018-09-01T11:56:40.739Z,28.11
2018-09-01T12:00:05.296Z,27.31
2018-09-01T12:03:29.835Z,29.57
2018-09-01T12:06:54.282Z,28.86
2018-09-01T12:10:18.760Z,29.26
2018-09-01T12:13:43.177Z,29.49
2018-09-01T12:17:07.755Z,28.57
2018-09-01T12:20:32.176Z,28.00
2018-09-01T12:23:56.703Z,29.02
2018-09-01T12:27:21.122Z,29.53
2018-09-01T12:30:45.611Z,29.27
2018-09-01T12:34:10.042Z,27.45
2018-09-01T12:37:34.442Z,28.24
2018-09-01T12:40:58.828Z,28.39
2018-09-01T12:44:23.470Z,28.06
2018-09-01T12:47:47.922Z,28.60
2018-09-01T12:51:12.360Z,27.96
2018-09-01T12:54:36.764Z,26.17
2018-09-01T12:58:01.218Z,25.17
2018-09-01T13:01:25.623Z,25.62
2018-09-01T13:04:50.458Z,26.58
2018-09-01T13:08:14.913Z,26.61
2018-09-01T13:11:39.339Z,27.27
2018-09-01T13:15:03.799Z,26.04
2018-09-01T13:18:28.248Z,24.98
2018-09-01T13:21:52.684Z,22.92
2018-09-01T13:25:17.238Z,23.03
2018-09-01T13:28:41.610Z,24.27
2018-09-01T13:32:06.036Z,26.92
2018-09-01T13:35:30.476Z,27.93
2018-09-01T13:38:55.425Z,28.29
2018-09-01T13:42:19.837Z,30.01
2018-09-01T13:45:44.246Z,29.23
2018-09-01T13:49:08.666Z,24.79
2018-09-01T13:52:33.106Z,19.15
2018-09-01T13:55:57.702Z,16.65
2018-09-01T13:59:22.191Z,15.81
2018-09-01T14:02:46.781Z,15.40
2018-09-01T14:06:11.259Z,17.62
2018-09-01T14:09:35.772Z,18.84
2018-09-01T14:13:00.175Z,21.37
2018-09-01T14:16:24.608Z,23.39
2018-09-01T14:19:49.035Z,24.45
2018-09-01T14:23:13.567Z,20.54
2018-09-01T14:26:38.065Z,15.71
2018-09-01T14:30:02.474Z,14.62
2018-09-01T14:33:26.863Z,13.41
2018-09-01T14:36:51.318Z,15.52
2018-09-01T14:40:15.758Z,18.24
2018-09-01T14:43:40.148Z,19.47
2018-09-01T14:47:04.887Z,16.72
2018-09-01T14:50:29.267Z,17.67
2018-09-01T14:53:53.827Z,19.33
2018-09-01T14:57:18.294Z,18.44
2018-09-01T15:00:42.772Z,16.76
2018-09-01T15:04:07.219Z,16.24
2018-09-01T15:07:31.629Z,14.88
2018-09-01T15:10:56.069Z,14.37
2018-09-01T15:14:20.531Z,14.04
2018-09-01T15:17:47.460Z,13.60
2018-09-01T15:21:12.104Z,13.44
2018-09-01T15:24:36.588Z,13.19
2018-09-01T15:28:01.052Z,15.04
2018-09-01T15:31:25.482Z,18.10
2018-09-01T15:34:49.932Z,21.23
2018-09-01T15:38:14.332Z,21.29
2018-09-01T15:41:38.751Z,20.03
2018-09-01T15:45:03.224Z,20.34
2018-09-01T15:48:27.605Z,21.22
2018-09-01T15:51:52.001Z,19.49
2018-09-01T15:55:16.420Z,17.70
2018-09-01T15:58:40.969Z,16.29
2018-09-01T16:02:05.650Z,15.19
2018-09-01T16:05:30.108Z,14.72
2018-09-01T16:08:54.526Z,15.14
2018-09-01T16:12:18.975Z,14.08
2018-09-01T16:15:43.396Z,18.35
2018-09-01T16:19:07.845Z,19.93
2018-09-01T16:22:32.263Z,21.77
2018-09-01T16:25:56.670Z,23.82
2018-09-01T16:29:21.176Z,26.01
2018-09-01T16:32:45.733Z,27.41
2018-09-01T16:36:10.247Z,28.22
2018-09-01T16:39:34.675Z,27.28
2018-09-01T16:42:59.120Z,25.64
2018-09-01T16:46:23.516Z,24.90
2018-09-01T16:49:48.033Z,24.12
2018-09-01T16:53:12.486Z,27.84
2018-09-01T16:56:36.909Z,28.89
2018-09-01T17:00:01.321Z,30.26
2018-09-01T17:03:26.094Z,29.59
2018-09-01T17:06:50.712Z,31.12
2018-09-01T17:10:15.304Z,31.96
2018-09-01T17:13:39.760Z,32.42
2018-09-01T17:17:04.393Z,32.31
2018-09-01T17:20:28.804Z,32.95
2018-09-01T17:23:53.347Z,32.35
2018-09-01T17:27:18.001Z,32.80
2018-09-01T17:30:42.470Z,33.14
2018-09-01T17:34:07.021Z,33.95
2018-09-01T17:37:31.603Z,34.34
2018-09-01T17:40:56.192Z,35.44
2018-09-01T17:44:20.704Z,35.80
2018-09-01T17:47:45.322Z,36.87
2018-09-01T17:51:12.928Z,37.51
2018-09-01T17:54:37.690Z,37.58
2018-09-01T17:58:02.164Z,38.88
2018-09-01T18:01:28.384Z,39.99
2018-09-01T18:04:52.878Z,40.99
2018-09-01T18:08:18.294Z,41.56
2018-09-01T18:11:43.193Z,42.13
2018-09-01T18:15:10.038Z,42.60
2018-09-01T18:18:34.964Z,43.33
2018-09-01T18:22:00.124Z,43.98
2018-09-01T18:25:24.538Z,44.70
2018-09-01T18:28:49.435Z,45.02
2018-09-01T18:32:14.149Z,45.94
2018-09-01T18:35:38.878Z,45.81
2018-09-01T18:39:04.297Z,46.21
2018-09-01T18:42:28.801Z,46.92
2018-09-01T18:45:53.994Z,47.67
2018-09-01T18:49:18.935Z,47.63
2018-09-01T18:52:43.717Z,47.85
2018-09-01T18:56:08.186Z,47.68
2018-09-01T18:59:33.204Z,48.36
2018-09-01T19:02:57.853Z,48.53
2018-09-01T19:06:23.136Z,48.88
2018-09-01T19:09:47.815Z,49.43
2018-09-01T19:13:13.555Z,49.38
2018-09-01T19:16:38.855Z,49.89
2018-09-01T19:20:03.561Z,49.87
2018-09-01T19:23:28.794Z,49.38
2018-09-01T19:26:53.633Z,49.70
2018-09-01T19:30:18.102Z,50.71
2018-09-01T19:33:42.601Z,51.14
2018-09-01T19:37:07.034Z,50.90
2018-09-01T19:40:31.662Z,51.33
2018-09-01T19:43:56.119Z,51.38
2018-09-01T19:47:20.537Z,52.21
2018-09-01T19:50:44.989Z,51.68
2018-09-01T19:54:09.579Z,52.44
2018-09-01T19:57:34.080Z,53.54
2018-09-01T20:00:58.504Z,52.58
2018-09-01T20:04:23.116Z,53.76
2018-09-01T20:07:47.662Z,53.53
2018-09-01T20:11:12.320Z,54.53
2018-09-01T20:14:37.060Z,54.65
2018-09-01T20:18:02.100Z,54.96
2018-09-01T20:21:27.948Z,55.38
2018-09-01T20:24:53.115Z,55.08
2018-09-01T20:28:18.424Z,56.48
2018-09-01T20:31:42.852Z,57.44
2018-09-01T20:35:12.727Z,58.68
2018-09-01T20:38:37.806Z,59.58
2018-09-01T20:42:03.219Z,59.69
2018-09-01T20:45:27.880Z,60.81
2018-09-01T20:48:53.647Z,60.10
2018-09-01T20:52:18.352Z,60.27
2018-09-01T20:55:42.991Z,61.03
2018-09-01T20:59:07.609Z,60.35
2018-09-01T21:02:32.080Z,60.37
2018-09-01T21:05:56.611Z,59.48
2018-09-01T21:09:21.239Z,59.89
2018-09-01T21:12:45.859Z,60.16
2018-09-01T21:16:10.387Z,60.72
2018-09-01T21:19:34.847Z,61.63
2018-09-01T21:22:59.584Z,62.74
2018-09-01T21:26:24.393Z,61.72
2018-09-01T21:29:49.043Z,62.38
2018-09-01T21:33:13.499Z,62.49
2018-09-01T21:36:38.132Z,62.96
2018-09-01T21:40:02.635Z,62.54
2018-09-01T21:43:27.447Z,62.78
2018-09-01T21:46:52.021Z,63.37
2018-09-01T21:50:16.578Z,62.81
2018-09-01T21:53:41.127Z,63.27
2018-09-01T21:57:06.126Z,62.14
2018-09-01T22:00:30.826Z,62.58
2018-09-01T22:03:55.271Z,62.18
2018-09-01T22:07:21.408Z,62.29
2018-09-01T22:10:45.807Z,63.17
2018-09-01T22:14:10.362Z,62.38
2018-09-01T22:17:34.851Z,61.89
2018-09-01T22:20:59.240Z,61.69
2018-09-01T22:24:23.632Z,62.57
2018-09-01T22:27:48.142Z,61.55
2018-09-01T22:31:12.582Z,63.35
2018-09-01T22:34:37.012Z,63.19
2018-09-01T22:38:01.449Z,63.64
2018-09-01T22:41:25.876Z,63.91
2018-09-01T22:44:50.322Z,64.39
2018-09-01T22:48:14.699Z,63.95
2018-09-01T22:51:39.142Z,64.73
2018-09-01T22:55:03.547Z,64.86
2018-09-01T22:58:27.968Z,64.84
2018-09-01T23:01:52.398Z,64.23
2018-09-01T23:05:16.793Z,63.86
2018-09-01T23:08:41.180Z,64.73
2018-09-01T23:12:05.585Z,64.14
2018-09-01T23:15:30.143Z,65.37
2018-09-01T23:18:54.567Z,65.20
2018-09-01T23:22:18.957Z,64.56
2018-09-01T23:25:43.351Z,64.37
2018-09-01T23:29:07.781Z,64.47
2018-09-01T23:32:32.215Z,64.48
2018-09-01T23:35:56.635Z,65.36
2018-09-01T23:39:21.104Z,65.08
2018-09-01T23:42:45.527Z,65.25
2018-09-01T23:46:10.041Z,65.38
2018-09-01T23:49:34.454Z,65.54
2018-09-01T23:52:58.887Z,66.30
2018-09-01T23:56:23.280Z,66.90
2018-09-01T23:59:47.726Z,66.33
